Weitz, Idaho
Current Conditions -  °F | °C
As of 6:35 PM on Sunday 28 Dec 2014 (Local Time) from KEUL Reporting Station
Overcast Overcast  
Wind Chill: 28°   Ceiling: 200
Heat Index: 28°   Visibility: 0.5mi
Dew Point: 21°   Wind: 3mph
Humidity: 74%   Direction: 160°SSE
Pressure: 30.12"   Gusts: NA
Location:  43.676°N, 116.752°W
Report Text: KEUL 290135Z AUTO 16003KT 1/2SM OVC002 M02/M06 A3012 RMK AO1
Loading
Personal Weather Stations






























Interactive Weather Map New forecast layout! Learn more

10-Day Weather Forecast

Advertisements
Track Severe Weather on mobile